sensor_id;sensor_type;location;lat;lon;timestamp;temperature;humidity
39079;DHT22;24829;49.208;12.080;2023-11-19T00:01:47;4.20;99.90
39079;DHT22;24829;49.208;12.080;2023-11-19T00:04:13;4.20;99.90
39079;DHT22;24829;49.208;12.080;2023-11-19T00:06:39;4.20;99.90
39079;DHT22;24829;49.208;12.080;2023-11-19T00:09:04;4.20;99.90
39079;DHT22;24829;49.208;12.080;2023-11-19T00:11:30;4.10;99.90
39079;DHT22;24829;49.208;12.080;2023-11-19T00:13:55;4.10;99.90
39079;DHT22;24829;49.208;12.080;2023-11-19T00:16:21;4.10;99.90
39079;DHT22;24829;49.208;12.080;2023-11-19T00:18:47;4.10;99.90
39079;DHT22;24829;49.208;12.080;2023-11-19T00:21:12;4.10;99.90
39079;DHT22;24829;49.208;12.080;2023-11-19T00:23:38;4.00;99.90
39079;DHT22;24829;49.208;12.080;2023-11-19T00:26:04;4.00;99.90
39079;DHT22;24829;49.208;12.080;2023-11-19T00:28:32;4.00;99.90
39079;DHT22;24829;49.208;12.080;2023-11-19T00:30:58;4.00;99.90
39079;DHT22;24829;49.208;12.080;2023-11-19T00:33:24;4.00;99.90
39079;DHT22;24829;49.208;12.080;2023-11-19T00:35:50;4.00;99.90
39079;DHT22;24829;49.208;12.080;2023-11-19T00:38:16;4.00;99.90
39079;DHT22;24829;49.208;12.080;2023-11-19T00:40:41;4.00;99.90
39079;DHT22;24829;49.208;12.080;2023-11-19T00:43:07;4.10;99.90
39079;DHT22;24829;49.208;12.080;2023-11-19T00:45:33;4.10;99.90
39079;DHT22;24829;49.208;12.080;2023-11-19T00:47:58;4.10;99.90
39079;DHT22;24829;49.208;12.080;2023-11-19T00:50:27;4.10;99.90
39079;DHT22;24829;49.208;12.080;2023-11-19T00:52:52;4.10;99.90
39079;DHT22;24829;49.208;12.080;2023-11-19T00:55:18;4.20;99.90
39079;DHT22;24829;49.208;12.080;2023-11-19T00:57:43;4.20;99.90
39079;DHT22;24829;49.208;12.080;2023-11-19T01:00:09;4.10;99.90
39079;DHT22;24829;49.208;12.080;2023-11-19T01:02:47;4.20;99.90
39079;DHT22;24829;49.208;12.080;2023-11-19T01:05:15;4.20;99.90
39079;DHT22;24829;49.208;12.080;2023-11-19T01:07:40;4.20;99.90
39079;DHT22;24829;49.208;12.080;2023-11-19T01:10:06;4.20;99.90
39079;DHT22;24829;49.208;12.080;2023-11-19T01:12:34;4.20;99.90
39079;DHT22;24829;49.208;12.080;2023-11-19T01:14:59;4.20;99.90
39079;DHT22;24829;49.208;12.080;2023-11-19T01:17:26;4.20;99.90
39079;DHT22;24829;49.208;12.080;2023-11-19T01:19:52;4.20;99.90
39079;DHT22;24829;49.208;12.080;2023-11-19T01:22:17;4.20;99.90
39079;DHT22;24829;49.208;12.080;2023-11-19T01:24:44;4.20;99.90
39079;DHT22;24829;49.208;12.080;2023-11-19T01:27:09;4.20;99.90
39079;DHT22;24829;49.208;12.080;2023-11-19T01:29:35;4.20;99.90
39079;DHT22;24829;49.208;12.080;2023-11-19T01:32:01;4.20;99.90
39079;DHT22;24829;49.208;12.080;2023-11-19T01:34:26;4.20;99.90
39079;DHT22;24829;49.208;12.080;2023-11-19T01:36:52;4.20;99.90
39079;DHT22;24829;49.208;12.080;2023-11-19T01:39:18;4.20;99.90
39079;DHT22;24829;49.208;12.080;2023-11-19T01:41:45;4.20;99.90
39079;DHT22;24829;49.208;12.080;2023-11-19T01:44:10;4.20;99.90
39079;DHT22;24829;49.208;12.080;2023-11-19T01:46:41;4.20;99.90
39079;DHT22;24829;49.208;12.080;2023-11-19T01:49:07;4.20;99.90
39079;DHT22;24829;49.208;12.080;2023-11-19T01:51:34;4.20;99.90
39079;DHT22;24829;49.208;12.080;2023-11-19T01:54:00;4.20;99.90
39079;DHT22;24829;49.208;12.080;2023-11-19T01:56:27;4.20;99.90
39079;DHT22;24829;49.208;12.080;2023-11-19T01:58:54;4.20;99.90
39079;DHT22;24829;49.208;12.080;2023-11-19T02:01:20;4.10;99.90
39079;DHT22;24829;49.208;12.080;2023-11-19T02:03:46;4.10;99.90
39079;DHT22;24829;49.208;12.080;2023-11-19T02:06:12;4.10;99.90
39079;DHT22;24829;49.208;12.080;2023-11-19T02:08:39;4.10;99.90
39079;DHT22;24829;49.208;12.080;2023-11-19T02:11:05;4.10;99.90
39079;DHT22;24829;49.208;12.080;2023-11-19T02:13:32;4.00;99.90
39079;DHT22;24829;49.208;12.080;2023-11-19T02:15:58;4.10;99.90
39079;DHT22;24829;49.208;12.080;2023-11-19T02:18:27;4.10;99.90
39079;DHT22;24829;49.208;12.080;2023-11-19T02:20:59;4.10;99.90
39079;DHT22;24829;49.208;12.080;2023-11-19T02:23:27;4.10;99.90
39079;DHT22;24829;49.208;12.080;2023-11-19T02:26:02;4.10;99.90
39079;DHT22;24829;49.208;12.080;2023-11-19T02:28:28;4.10;99.90
39079;DHT22;24829;49.208;12.080;2023-11-19T02:30:53;4.10;99.90
39079;DHT22;24829;49.208;12.080;2023-11-19T02:33:19;4.10;99.90
39079;DHT22;24829;49.208;12.080;2023-11-19T02:35:44;4.10;99.90
39079;DHT22;24829;49.208;12.080;2023-11-19T02:38:10;4.20;99.90
39079;DHT22;24829;49.208;12.080;2023-11-19T02:40:36;4.20;99.90
39079;DHT22;24829;49.208;12.080;2023-11-19T02:43:02;4.20;99.90
39079;DHT22;24829;49.208;12.080;2023-11-19T02:45:30;4.10;99.90
39079;DHT22;24829;49.208;12.080;2023-11-19T02:47:56;4.20;99.90
39079;DHT22;24829;49.208;12.080;2023-11-19T02:50:22;4.20;99.90
39079;DHT22;24829;49.208;12.080;2023-11-19T02:52:51;4.20;99.90
39079;DHT22;24829;49.208;12.080;2023-11-19T02:55:17;4.30;99.90
39079;DHT22;24829;49.208;12.080;2023-11-19T02:57:43;4.30;99.90
39079;DHT22;24829;49.208;12.080;2023-11-19T03:00:18;4.30;99.90
39079;DHT22;24829;49.208;12.080;2023-11-19T03:02:44;4.30;99.90
39079;DHT22;24829;49.208;12.080;2023-11-19T03:05:15;4.30;99.90
39079;DHT22;24829;49.208;12.080;2023-11-19T03:07:42;4.30;99.90
39079;DHT22;24829;49.208;12.080;2023-11-19T03:10:09;4.30;99.90
39079;DHT22;24829;49.208;12.080;2023-11-19T03:12:39;4.30;99.90
39079;DHT22;24829;49.208;12.080;2023-11-19T03:15:05;4.30;99.90
39079;DHT22;24829;49.208;12.080;2023-11-19T03:17:30;4.30;99.90
39079;DHT22;24829;49.208;12.080;2023-11-19T03:19:56;4.30;99.90
39079;DHT22;24829;49.208;12.080;2023-11-19T03:22:22;4.40;99.90
39079;DHT22;24829;49.208;12.080;2023-11-19T03:24:50;4.40;99.90
39079;DHT22;24829;49.208;12.080;2023-11-19T03:27:16;4.40;99.90
39079;DHT22;24829;49.208;12.080;2023-11-19T03:29:42;4.40;99.90
39079;DHT22;24829;49.208;12.080;2023-11-19T03:32:07;4.40;99.90
39079;DHT22;24829;49.208;12.080;2023-11-19T03:34:33;4.40;99.90
39079;DHT22;24829;49.208;12.080;2023-11-19T03:36:58;4.30;99.90
39079;DHT22;24829;49.208;12.080;2023-11-19T03:39:24;4.30;99.90
39079;DHT22;24829;49.208;12.080;2023-11-19T03:41:50;4.30;99.90
39079;DHT22;24829;49.208;12.080;2023-11-19T03:44:16;4.30;99.90
39079;DHT22;24829;49.208;12.080;2023-11-19T03:46:42;4.30;99.90
39079;DHT22;24829;49.208;12.080;2023-11-19T03:49:07;4.30;99.90
39079;DHT22;24829;49.208;12.080;2023-11-19T03:51:33;4.30;99.90
39079;DHT22;24829;49.208;12.080;2023-11-19T03:54:00;4.20;99.90
39079;DHT22;24829;49.208;12.080;2023-11-19T03:56:26;4.20;99.90
39079;DHT22;24829;49.208;12.080;2023-11-19T03:58:52;4.20;99.90
39079;DHT22;24829;49.208;12.080;2023-11-19T04:01:18;4.10;99.90
39079;DHT22;24829;49.208;12.080;2023-11-19T04:03:44;4.10;99.90
39079;DHT22;24829;49.208;12.080;2023-11-19T04:06:09;4.10;99.90
39079;DHT22;24829;49.208;12.080;2023-11-19T04:08:35;4.10;99.90
39079;DHT22;24829;49.208;12.080;2023-11-19T04:11:02;4.10;99.90
39079;DHT22;24829;49.208;12.080;2023-11-19T04:13:28;4.20;99.90
39079;DHT22;24829;49.208;12.080;2023-11-19T04:15:54;4.20;99.90
39079;DHT22;24829;49.208;12.080;2023-11-19T04:18:19;4.20;99.90
39079;DHT22;24829;49.208;12.080;2023-11-19T04:20:45;4.20;99.90
39079;DHT22;24829;49.208;12.080;2023-11-19T04:23:10;4.20;99.90
39079;DHT22;24829;49.208;12.080;2023-11-19T04:25:36;4.20;99.90
39079;DHT22;24829;49.208;12.080;2023-11-19T04:28:02;4.20;99.90
39079;DHT22;24829;49.208;12.080;2023-11-19T04:30:28;4.20;99.90
39079;DHT22;24829;49.208;12.080;2023-11-19T04:32:53;4.10;99.90
39079;DHT22;24829;49.208;12.080;2023-11-19T04:35:19;4.10;99.90
39079;DHT22;24829;49.208;12.080;2023-11-19T04:37:45;4.20;99.90
39079;DHT22;24829;49.208;12.080;2023-11-19T04:40:11;4.20;99.90
39079;DHT22;24829;49.208;12.080;2023-11-19T04:42:37;4.20;99.90
39079;DHT22;24829;49.208;12.080;2023-11-19T04:45:06;4.20;99.90
39079;DHT22;24829;49.208;12.080;2023-11-19T04:47:36;4.20;99.90
39079;DHT22;24829;49.208;12.080;2023-11-19T04:50:02;4.20;99.90
39079;DHT22;24829;49.208;12.080;2023-11-19T04:52:28;4.20;99.90
39079;DHT22;24829;49.208;12.080;2023-11-19T04:54:54;4.20;99.90
39079;DHT22;24829;49.208;12.080;2023-11-19T04:57:20;4.20;99.90
39079;DHT22;24829;49.208;12.080;2023-11-19T04:59:45;4.20;99.90
39079;DHT22;24829;49.208;12.080;2023-11-19T05:02:11;4.20;99.90
39079;DHT22;24829;49.208;12.080;2023-11-19T05:04:36;4.20;99.90
39079;DHT22;24829;49.208;12.080;2023-11-19T05:07:05;4.20;99.90
39079;DHT22;24829;49.208;12.080;2023-11-19T05:09:31;4.20;99.90
39079;DHT22;24829;49.208;12.080;2023-11-19T05:11:56;4.20;99.90
39079;DHT22;24829;49.208;12.080;2023-11-19T05:14:22;4.20;99.90
39079;DHT22;24829;49.208;12.080;2023-11-19T05:16:49;4.20;99.90
39079;DHT22;24829;49.208;12.080;2023-11-19T05:19:15;4.20;99.90
39079;DHT22;24829;49.208;12.080;2023-11-19T05:21:43;4.20;99.90
39079;DHT22;24829;49.208;12.080;2023-11-19T05:24:09;4.20;99.90
39079;DHT22;24829;49.208;12.080;2023-11-19T05:26:34;4.30;99.90
39079;DHT22;24829;49.208;12.080;2023-11-19T05:29:00;4.20;99.90
39079;DHT22;24829;49.208;12.080;2023-11-19T05:31:26;4.20;99.90
39079;DHT22;24829;49.208;12.080;2023-11-19T05:33:52;4.20;99.90
39079;DHT22;24829;49.208;12.080;2023-11-19T05:36:17;4.30;99.90
39079;DHT22;24829;49.208;12.080;2023-11-19T05:38:43;4.30;99.90
39079;DHT22;24829;49.208;12.080;2023-11-19T05:41:10;4.30;99.90
39079;DHT22;24829;49.208;12.080;2023-11-19T05:43:36;4.30;99.90
39079;DHT22;24829;49.208;12.080;2023-11-19T05:46:01;4.30;99.90
39079;DHT22;24829;49.208;12.080;2023-11-19T05:48:27;4.20;99.90
39079;DHT22;24829;49.208;12.080;2023-11-19T05:50:53;4.20;99.90
39079;DHT22;24829;49.208;12.080;2023-11-19T05:53:19;4.20;99.90
39079;DHT22;24829;49.208;12.080;2023-11-19T05:55:44;4.10;99.90
39079;DHT22;24829;49.208;12.080;2023-11-19T05:58:22;4.10;99.90
39079;DHT22;24829;49.208;12.080;2023-11-19T06:00:48;4.10;99.90
39079;DHT22;24829;49.208;12.080;2023-11-19T06:03:13;4.10;99.90
39079;DHT22;24829;49.208;12.080;2023-11-19T06:05:39;4.10;99.90
39079;DHT22;24829;49.208;12.080;2023-11-19T06:08:04;4.10;99.90
39079;DHT22;24829;49.208;12.080;2023-11-19T06:10:32;4.10;99.90
39079;DHT22;24829;49.208;12.080;2023-11-19T06:12:58;4.10;99.90
39079;DHT22;24829;49.208;12.080;2023-11-19T06:15:25;4.10;99.90
39079;DHT22;24829;49.208;12.080;2023-11-19T06:17:51;4.20;99.90
39079;DHT22;24829;49.208;12.080;2023-11-19T06:20:17;4.20;99.90
39079;DHT22;24829;49.208;12.080;2023-11-19T06:22:45;4.30;99.90
39079;DHT22;24829;49.208;12.080;2023-11-19T06:25:11;4.30;99.90
39079;DHT22;24829;49.208;12.080;2023-11-19T06:27:37;4.30;99.90
39079;DHT22;24829;49.208;12.080;2023-11-19T06:30:03;4.30;99.90
39079;DHT22;24829;49.208;12.080;2023-11-19T06:32:29;4.30;99.90
39079;DHT22;24829;49.208;12.080;2023-11-19T06:34:55;4.40;99.90
39079;DHT22;24829;49.208;12.080;2023-11-19T06:37:21;4.40;99.90
39079;DHT22;24829;49.208;12.080;2023-11-19T06:39:47;4.40;99.90
39079;DHT22;24829;49.208;12.080;2023-11-19T06:42:13;4.40;99.90
39079;DHT22;24829;49.208;12.080;2023-11-19T06:44:38;4.40;99.90
39079;DHT22;24829;49.208;12.080;2023-11-19T06:47:04;4.40;99.90
39079;DHT22;24829;49.208;12.080;2023-11-19T06:49:30;4.50;99.90
39079;DHT22;24829;49.208;12.080;2023-11-19T06:51:55;4.40;99.90
39079;DHT22;24829;49.208;12.080;2023-11-19T06:54:22;4.50;99.90
39079;DHT22;24829;49.208;12.080;2023-11-19T06:56:48;4.50;99.90
39079;DHT22;24829;49.208;12.080;2023-11-19T06:59:14;4.50;99.90
39079;DHT22;24829;49.208;12.080;2023-11-19T07:01:39;4.50;99.90
39079;DHT22;24829;49.208;12.080;2023-11-19T07:04:11;4.50;99.90
39079;DHT22;24829;49.208;12.080;2023-11-19T07:06:38;4.50;99.90
39079;DHT22;24829;49.208;12.080;2023-11-19T07:09:04;4.50;99.90
39079;DHT22;24829;49.208;12.080;2023-11-19T07:11:44;4.50;99.90
39079;DHT22;24829;49.208;12.080;2023-11-19T07:14:10;4.60;99.90
39079;DHT22;24829;49.208;12.080;2023-11-19T07:16:37;4.60;99.90
39079;DHT22;24829;49.208;12.080;2023-11-19T07:19:04;4.60;99.90
39079;DHT22;24829;49.208;12.080;2023-11-19T07:21:30;4.70;99.90
39079;DHT22;24829;49.208;12.080;2023-11-19T07:23:56;4.70;99.90
39079;DHT22;24829;49.208;12.080;2023-11-19T07:26:22;4.70;99.90
39079;DHT22;24829;49.208;12.080;2023-11-19T07:28:51;4.60;99.90
39079;DHT22;24829;49.208;12.080;2023-11-19T07:31:17;4.60;99.90
39079;DHT22;24829;49.208;12.080;2023-11-19T07:33:46;4.50;99.90
39079;DHT22;24829;49.208;12.080;2023-11-19T07:36:13;4.50;99.90
39079;DHT22;24829;49.208;12.080;2023-11-19T07:38:38;4.50;99.90
39079;DHT22;24829;49.208;12.080;2023-11-19T07:41:05;4.50;99.90
39079;DHT22;24829;49.208;12.080;2023-11-19T07:43:32;4.50;99.90
39079;DHT22;24829;49.208;12.080;2023-11-19T07:45:57;4.50;99.90
39079;DHT22;24829;49.208;12.080;2023-11-19T07:48:25;4.60;99.90
39079;DHT22;24829;49.208;12.080;2023-11-19T07:50:52;4.60;99.90
39079;DHT22;24829;49.208;12.080;2023-11-19T07:53:19;4.60;99.90
39079;DHT22;24829;49.208;12.080;2023-11-19T07:55:45;4.60;99.90
39079;DHT22;24829;49.208;12.080;2023-11-19T07:58:11;4.70;99.90
39079;DHT22;24829;49.208;12.080;2023-11-19T08:00:37;4.70;99.90
39079;DHT22;24829;49.208;12.080;2023-11-19T08:03:03;4.70;99.90
39079;DHT22;24829;49.208;12.080;2023-11-19T08:05:29;4.60;99.90
39079;DHT22;24829;49.208;12.080;2023-11-19T08:07:55;4.70;99.90
39079;DHT22;24829;49.208;12.080;2023-11-19T08:10:20;4.80;99.90
39079;DHT22;24829;49.208;12.080;2023-11-19T08:12:46;4.80;99.90
39079;DHT22;24829;49.208;12.080;2023-11-19T08:15:12;4.90;99.90
39079;DHT22;24829;49.208;12.080;2023-11-19T08:17:38;4.90;99.90
39079;DHT22;24829;49.208;12.080;2023-11-19T08:20:04;4.90;99.90
39079;DHT22;24829;49.208;12.080;2023-11-19T08:22:30;5.00;99.90
39079;DHT22;24829;49.208;12.080;2023-11-19T08:24:56;5.00;99.90
39079;DHT22;24829;49.208;12.080;2023-11-19T08:27:22;5.10;99.90
39079;DHT22;24829;49.208;12.080;2023-11-19T08:29:54;5.10;99.90
39079;DHT22;24829;49.208;12.080;2023-11-19T08:32:24;5.10;99.90
39079;DHT22;24829;49.208;12.080;2023-11-19T08:34:49;5.10;99.90
39079;DHT22;24829;49.208;12.080;2023-11-19T08:37:15;5.10;99.90
39079;DHT22;24829;49.208;12.080;2023-11-19T08:39:43;5.10;99.90
39079;DHT22;24829;49.208;12.080;2023-11-19T08:42:09;5.00;99.90
39079;DHT22;24829;49.208;12.080;2023-11-19T08:44:34;5.10;99.90
39079;DHT22;24829;49.208;12.080;2023-11-19T08:47:00;5.10;99.90
39079;DHT22;24829;49.208;12.080;2023-11-19T08:49:25;5.10;99.90
39079;DHT22;24829;49.208;12.080;2023-11-19T08:51:51;5.10;99.90
39079;DHT22;24829;49.208;12.080;2023-11-19T08:54:16;5.10;99.90
39079;DHT22;24829;49.208;12.080;2023-11-19T08:56:42;5.20;99.90
39079;DHT22;24829;49.208;12.080;2023-11-19T08:59:08;5.10;99.90
39079;DHT22;24829;49.208;12.080;2023-11-19T09:01:34;5.10;99.90
39079;DHT22;24829;49.208;12.080;2023-11-19T09:03:59;5.20;99.90
39079;DHT22;24829;49.208;12.080;2023-11-19T09:06:25;5.20;99.90
39079;DHT22;24829;49.208;12.080;2023-11-19T09:08:51;5.30;99.90
39079;DHT22;24829;49.208;12.080;2023-11-19T09:11:16;5.30;99.90
39079;DHT22;24829;49.208;12.080;2023-11-19T09:13:42;5.30;99.90
39079;DHT22;24829;49.208;12.080;2023-11-19T09:16:08;5.30;99.90
39079;DHT22;24829;49.208;12.080;2023-11-19T09:18:34;5.20;99.90
39079;DHT22;24829;49.208;12.080;2023-11-19T09:21:00;5.20;99.90
39079;DHT22;24829;49.208;12.080;2023-11-19T09:23:26;5.20;99.90
39079;DHT22;24829;49.208;12.080;2023-11-19T09:25:53;5.20;99.90
39079;DHT22;24829;49.208;12.080;2023-11-19T09:28:18;5.20;99.90
39079;DHT22;24829;49.208;12.080;2023-11-19T09:30:44;5.20;99.90
39079;DHT22;24829;49.208;12.080;2023-11-19T09:33:10;5.30;99.90
39079;DHT22;24829;49.208;12.080;2023-11-19T09:35:35;5.30;99.90
39079;DHT22;24829;49.208;12.080;2023-11-19T09:38:01;5.30;99.90
39079;DHT22;24829;49.208;12.080;2023-11-19T09:40:27;5.40;99.90
39079;DHT22;24829;49.208;12.080;2023-11-19T09:42:54;5.50;99.90
39079;DHT22;24829;49.208;12.080;2023-11-19T09:45:21;5.50;99.90
39079;DHT22;24829;49.208;12.080;2023-11-19T09:47:47;5.50;99.90
39079;DHT22;24829;49.208;12.080;2023-11-19T09:50:17;5.60;99.90
39079;DHT22;24829;49.208;12.080;2023-11-19T09:52:47;5.60;99.90
39079;DHT22;24829;49.208;12.080;2023-11-19T09:55:13;5.60;99.90
39079;DHT22;24829;49.208;12.080;2023-11-19T09:57:40;5.70;99.90
39079;DHT22;24829;49.208;12.080;2023-11-19T10:00:10;5.80;99.90
39079;DHT22;24829;49.208;12.080;2023-11-19T10:02:37;5.80;99.90
39079;DHT22;24829;49.208;12.080;2023-11-19T10:05:07;5.90;99.90
39079;DHT22;24829;49.208;12.080;2023-11-19T10:07:33;6.00;99.90
39079;DHT22;24829;49.208;12.080;2023-11-19T10:10:00;6.00;99.90
39079;DHT22;24829;49.208;12.080;2023-11-19T10:12:27;6.10;99.90
39079;DHT22;24829;49.208;12.080;2023-11-19T10:14:57;6.20;99.90
39079;DHT22;24829;49.208;12.080;2023-11-19T10:17:33;6.30;99.90
39079;DHT22;24829;49.208;12.080;2023-11-19T10:19:59;6.40;99.90
39079;DHT22;24829;49.208;12.080;2023-11-19T10:22:25;6.50;99.90
39079;DHT22;24829;49.208;12.080;2023-11-19T10:24:52;6.50;99.90
39079;DHT22;24829;49.208;12.080;2023-11-19T10:27:18;6.60;99.90
39079;DHT22;24829;49.208;12.080;2023-11-19T10:29:45;6.70;99.90
39079;DHT22;24829;49.208;12.080;2023-11-19T10:32:12;6.80;99.90
39079;DHT22;24829;49.208;12.080;2023-11-19T10:34:39;6.90;99.90
39079;DHT22;24829;49.208;12.080;2023-11-19T10:37:05;6.90;99.90
39079;DHT22;24829;49.208;12.080;2023-11-19T10:39:52;7.00;99.90
39079;DHT22;24829;49.208;12.080;2023-11-19T10:42:21;7.00;99.90
39079;DHT22;24829;49.208;12.080;2023-11-19T10:44:46;7.10;99.90
39079;DHT22;24829;49.208;12.080;2023-11-19T10:47:14;7.10;99.90
39079;DHT22;24829;49.208;12.080;2023-11-19T10:49:42;7.10;99.90
39079;DHT22;24829;49.208;12.080;2023-11-19T10:52:09;7.10;99.90
39079;DHT22;24829;49.208;12.080;2023-11-19T10:54:34;7.10;99.90
39079;DHT22;24829;49.208;12.080;2023-11-19T10:57:01;7.20;99.90
39079;DHT22;24829;49.208;12.080;2023-11-19T10:59:30;7.20;99.90
39079;DHT22;24829;49.208;12.080;2023-11-19T11:01:57;7.20;99.90
39079;DHT22;24829;49.208;12.080;2023-11-19T11:04:23;7.30;99.90
39079;DHT22;24829;49.208;12.080;2023-11-19T11:06:51;7.30;99.90
39079;DHT22;24829;49.208;12.080;2023-11-19T11:09:17;7.40;99.90
39079;DHT22;24829;49.208;12.080;2023-11-19T11:11:46;7.30;99.90
39079;DHT22;24829;49.208;12.080;2023-11-19T11:14:13;7.40;99.90
39079;DHT22;24829;49.208;12.080;2023-11-19T11:16:46;7.40;99.90
39079;DHT22;24829;49.208;12.080;2023-11-19T11:19:15;7.40;99.90
39079;DHT22;24829;49.208;12.080;2023-11-19T11:21:45;7.40;99.90
39079;DHT22;24829;49.208;12.080;2023-11-19T11:38:37;8.10;99.90
39079;DHT22;24829;49.208;12.080;2023-11-19T11:41:24;8.30;99.90
39079;DHT22;24829;49.208;12.080;2023-11-19T11:43:54;8.50;99.90
39079;DHT22;24829;49.208;12.080;2023-11-19T11:48:58;9.00;99.90
39079;DHT22;24829;49.208;12.080;2023-11-19T11:54:09;9.20;99.90
39079;DHT22;24829;49.208;12.080;2023-11-19T11:56:38;9.30;99.90
39079;DHT22;24829;49.208;12.080;2023-11-19T11:59:24;9.40;99.90
39079;DHT22;24829;49.208;12.080;2023-11-19T12:01:58;9.50;99.90
39079;DHT22;24829;49.208;12.080;2023-11-19T12:04:27;9.50;99.90
39079;DHT22;24829;49.208;12.080;2023-11-19T12:07:06;9.50;99.90
39079;DHT22;24829;49.208;12.080;2023-11-19T12:09:32;9.60;99.90
39079;DHT22;24829;49.208;12.080;2023-11-19T12:12:17;9.70;99.90
39079;DHT22;24829;49.208;12.080;2023-11-19T12:15:02;9.80;99.90
39079;DHT22;24829;49.208;12.080;2023-11-19T12:20:08;9.90;99.90
39079;DHT22;24829;49.208;12.080;2023-11-19T12:22:41;10.10;99.90
39079;DHT22;24829;49.208;12.080;2023-11-19T12:25:09;10.10;99.90
39079;DHT22;24829;49.208;12.080;2023-11-19T12:27:36;10.10;99.90
39079;DHT22;24829;49.208;12.080;2023-11-19T12:30:05;10.00;99.90
39079;DHT22;24829;49.208;12.080;2023-11-19T12:32:41;10.00;99.90
39079;DHT22;24829;49.208;12.080;2023-11-19T12:35:07;9.90;99.90
39079;DHT22;24829;49.208;12.080;2023-11-19T12:37:42;9.90;99.90
39079;DHT22;24829;49.208;12.080;2023-11-19T12:40:22;10.00;99.90
39079;DHT22;24829;49.208;12.080;2023-11-19T12:42:49;10.00;99.90
39079;DHT22;24829;49.208;12.080;2023-11-19T12:45:15;10.00;99.90
39079;DHT22;24829;49.208;12.080;2023-11-19T12:47:42;10.10;99.90
39079;DHT22;24829;49.208;12.080;2023-11-19T12:50:09;10.10;99.90
39079;DHT22;24829;49.208;12.080;2023-11-19T12:52:35;10.30;99.90
39079;DHT22;24829;49.208;12.080;2023-11-19T12:55:05;10.50;99.90
39079;DHT22;24829;49.208;12.080;2023-11-19T12:57:48;10.70;99.90
39079;DHT22;24829;49.208;12.080;2023-11-19T13:00:21;10.80;99.90
39079;DHT22;24829;49.208;12.080;2023-11-19T13:02:55;10.90;99.90
39079;DHT22;24829;49.208;12.080;2023-11-19T13:05:32;11.00;99.90
39079;DHT22;24829;49.208;12.080;2023-11-19T13:08:08;11.10;99.90
39079;DHT22;24829;49.208;12.080;2023-11-19T13:10:54;11.20;99.90
39079;DHT22;24829;49.208;12.080;2023-11-19T13:13:20;11.30;99.90
39079;DHT22;24829;49.208;12.080;2023-11-19T13:15:46;11.40;99.90
39079;DHT22;24829;49.208;12.080;2023-11-19T13:18:12;11.40;99.90
39079;DHT22;24829;49.208;12.080;2023-11-19T13:20:38;11.40;99.90
39079;DHT22;24829;49.208;12.080;2023-11-19T13:23:05;11.40;99.90
39079;DHT22;24829;49.208;12.080;2023-11-19T13:25:32;11.40;99.90
39079;DHT22;24829;49.208;12.080;2023-11-19T13:27:59;11.40;99.90
39079;DHT22;24829;49.208;12.080;2023-11-19T13:30:25;11.50;99.90
39079;DHT22;24829;49.208;12.080;2023-11-19T13:32:51;11.50;99.90
39079;DHT22;24829;49.208;12.080;2023-11-19T13:35:18;11.50;99.90
39079;DHT22;24829;49.208;12.080;2023-11-19T13:37:44;11.50;99.90
39079;DHT22;24829;49.208;12.080;2023-11-19T13:40:11;11.70;99.90
39079;DHT22;24829;49.208;12.080;2023-11-19T13:42:39;11.70;99.90
39079;DHT22;24829;49.208;12.080;2023-11-19T13:45:08;11.80;99.90
39079;DHT22;24829;49.208;12.080;2023-11-19T13:47:37;11.90;99.90
39079;DHT22;24829;49.208;12.080;2023-11-19T13:50:10;11.90;99.90
39079;DHT22;24829;49.208;12.080;2023-11-19T13:52:37;11.90;99.90
39079;DHT22;24829;49.208;12.080;2023-11-19T13:55:07;11.90;99.90
39079;DHT22;24829;49.208;12.080;2023-11-19T13:57:34;11.90;99.90
39079;DHT22;24829;49.208;12.080;2023-11-19T14:00:01;11.90;99.90
39079;DHT22;24829;49.208;12.080;2023-11-19T14:02:30;11.90;99.90
39079;DHT22;24829;49.208;12.080;2023-11-19T14:04:56;11.90;99.90
39079;DHT22;24829;49.208;12.080;2023-11-19T14:07:21;11.80;99.90
39079;DHT22;24829;49.208;12.080;2023-11-19T14:09:47;11.80;99.90
39079;DHT22;24829;49.208;12.080;2023-11-19T14:12:12;11.80;99.90
39079;DHT22;24829;49.208;12.080;2023-11-19T14:14:38;11.70;99.90
39079;DHT22;24829;49.208;12.080;2023-11-19T14:17:05;11.70;99.90
39079;DHT22;24829;49.208;12.080;2023-11-19T14:19:30;11.70;99.90
39079;DHT22;24829;49.208;12.080;2023-11-19T14:21:56;11.60;99.90
39079;DHT22;24829;49.208;12.080;2023-11-19T14:24:21;11.70;99.90
39079;DHT22;24829;49.208;12.080;2023-11-19T14:26:47;11.60;99.90
39079;DHT22;24829;49.208;12.080;2023-11-19T14:29:14;11.60;99.90
39079;DHT22;24829;49.208;12.080;2023-11-19T14:31:39;11.60;99.90
39079;DHT22;24829;49.208;12.080;2023-11-19T14:34:05;11.50;99.90
39079;DHT22;24829;49.208;12.080;2023-11-19T14:36:31;11.40;99.90
39079;DHT22;24829;49.208;12.080;2023-11-19T14:38:56;11.40;99.90
39079;DHT22;24829;49.208;12.080;2023-11-19T14:41:24;11.40;99.90
39079;DHT22;24829;49.208;12.080;2023-11-19T14:43:50;11.40;99.90
39079;DHT22;24829;49.208;12.080;2023-11-19T14:46:15;11.40;99.90
39079;DHT22;24829;49.208;12.080;2023-11-19T14:48:41;11.30;99.90
39079;DHT22;24829;49.208;12.080;2023-11-19T14:51:07;11.30;99.90
39079;DHT22;24829;49.208;12.080;2023-11-19T14:53:32;11.30;99.90
39079;DHT22;24829;49.208;12.080;2023-11-19T14:55:58;11.20;99.90
39079;DHT22;24829;49.208;12.080;2023-11-19T14:58:24;11.30;99.90
39079;DHT22;24829;49.208;12.080;2023-11-19T15:00:51;11.20;99.90
39079;DHT22;24829;49.208;12.080;2023-11-19T15:03:17;11.10;99.90
39079;DHT22;24829;49.208;12.080;2023-11-19T15:05:45;11.10;99.90
39079;DHT22;24829;49.208;12.080;2023-11-19T15:08:11;11.00;99.90
39079;DHT22;24829;49.208;12.080;2023-11-19T15:10:37;10.90;99.90
39079;DHT22;24829;49.208;12.080;2023-11-19T15:13:03;10.80;99.90
39079;DHT22;24829;49.208;12.080;2023-11-19T15:15:29;10.70;99.90
39079;DHT22;24829;49.208;12.080;2023-11-19T15:17:55;10.60;99.90
39079;DHT22;24829;49.208;12.080;2023-11-19T15:20:20;10.50;99.90
39079;DHT22;24829;49.208;12.080;2023-11-19T15:22:46;10.40;99.90
39079;DHT22;24829;49.208;12.080;2023-11-19T15:25:13;10.20;99.90
39079;DHT22;24829;49.208;12.080;2023-11-19T15:27:38;10.10;99.90
39079;DHT22;24829;49.208;12.080;2023-11-19T15:30:04;10.00;99.90
39079;DHT22;24829;49.208;12.080;2023-11-19T15:32:30;9.90;99.90
39079;DHT22;24829;49.208;12.080;2023-11-19T15:34:57;9.80;99.90
39079;DHT22;24829;49.208;12.080;2023-11-19T15:37:23;9.60;99.90
39079;DHT22;24829;49.208;12.080;2023-11-19T15:39:49;9.50;99.90
39079;DHT22;24829;49.208;12.080;2023-11-19T15:42:17;9.40;99.90
39079;DHT22;24829;49.208;12.080;2023-11-19T15:44:42;9.30;99.90
39079;DHT22;24829;49.208;12.080;2023-11-19T15:47:09;9.30;99.90
39079;DHT22;24829;49.208;12.080;2023-11-19T15:49:34;9.20;99.90